createdAt,value
2017-09-15T00:01:07.904Z,10.57
2017-09-15T00:03:35.588Z,10.00
2017-09-15T00:06:03.250Z,10.27
2017-09-15T00:08:31.785Z,9.53
2017-09-15T00:10:59.437Z,10.03
2017-09-15T00:13:27.130Z,8.90
2017-09-15T00:15:54.825Z,8.77
2017-09-15T01:26:36.547Z,13.30
2017-09-15T01:29:04.203Z,12.00
2017-09-15T01:31:31.976Z,12.47
2017-09-15T01:33:59.639Z,13.80
2017-09-15T01:36:27.364Z,14.03
2017-09-15T01:38:55.004Z,13.37
2017-09-15T01:41:22.730Z,12.77
2017-09-15T01:43:50.446Z,14.10
2017-09-15T01:46:18.115Z,14.67
2017-09-15T01:48:45.774Z,13.73
2017-09-15T01:51:13.510Z,12.97
2017-09-15T01:53:41.982Z,15.63
2017-09-15T01:56:09.717Z,14.30
2017-09-15T01:58:37.470Z,17.53
2017-09-15T02:01:05.160Z,16.63
2017-09-15T02:03:32.843Z,16.23
2017-09-15T02:06:01.372Z,18.00
2017-09-15T02:08:29.072Z,17.60
2017-09-15T02:10:57.654Z,16.87
2017-09-15T02:13:26.136Z,19.00
2017-09-15T02:15:53.813Z,18.00
2017-09-15T04:13:26.406Z,15.10
2017-09-15T04:15:54.116Z,14.30
2017-09-15T04:35:28.025Z,19.50
2017-09-15T04:37:55.806Z,21.30
2017-09-15T04:40:24.360Z,21.10
2017-09-15T04:42:52.139Z,21.63
2017-09-15T04:45:20.722Z,21.10
2017-09-15T04:47:48.383Z,20.33
2017-09-15T04:50:16.129Z,20.77
2017-09-15T04:52:43.958Z,20.20
2017-09-15T04:55:12.454Z,21.30
2017-09-15T04:57:40.125Z,21.27
2017-09-15T05:00:07.873Z,18.60
2017-09-15T05:02:35.610Z,20.03
2017-09-15T05:05:03.383Z,18.70
2017-09-15T05:07:31.146Z,19.90
2017-09-15T05:09:59.594Z,19.60
2017-09-15T05:12:28.125Z,20.80
2017-09-15T05:14:55.842Z,20.67
2017-09-15T05:17:23.591Z,19.10
2017-09-15T05:19:51.343Z,20.00
2017-09-15T05:22:19.060Z,19.53
2017-09-15T05:24:46.895Z,20.10
2017-09-15T05:27:14.627Z,21.27
2017-09-15T05:29:42.429Z,22.00
2017-09-15T05:32:10.206Z,20.83
2017-09-15T05:34:50.521Z,20.60
2017-09-15T05:37:18.228Z,20.27
2017-09-15T05:39:45.909Z,19.43
2017-09-15T05:42:14.318Z,21.10
2017-09-15T05:44:41.990Z,21.20
2017-09-15T05:47:09.641Z,21.67
2017-09-15T05:52:39.457Z,21.33
2017-09-15T05:55:07.226Z,19.80
2017-09-15T05:57:34.940Z,20.93
2017-09-15T06:00:02.624Z,21.83
2017-09-15T06:02:43.891Z,21.37
2017-09-15T06:05:12.316Z,21.33
2017-09-15T06:07:40.016Z,19.90
2017-09-15T06:10:07.755Z,18.90
2017-09-15T06:12:35.404Z,19.63
2017-09-15T06:15:03.437Z,18.07
2017-09-15T06:17:31.356Z,17.67
2017-09-15T06:19:59.063Z,19.47
2017-09-15T06:22:26.780Z,17.70
2017-09-15T06:24:54.441Z,19.57
2017-09-15T06:27:22.189Z,17.73
2017-09-15T06:29:49.875Z,18.70
2017-09-15T06:32:17.636Z,18.13
2017-09-15T06:34:45.379Z,17.97
2017-09-15T06:37:13.150Z,19.63
2017-09-15T06:39:40.956Z,19.80
2017-09-15T06:42:08.667Z,17.13
2017-09-15T06:44:36.512Z,19.13
2017-09-15T06:50:26.283Z,17.87
2017-09-15T06:52:54.953Z,17.20
2017-09-15T06:55:22.648Z,18.40
2017-09-15T06:57:50.606Z,19.23
2017-09-15T07:00:18.346Z,17.10
2017-09-15T07:02:46.056Z,18.80
2017-09-15T07:05:13.853Z,18.43
2017-09-15T07:07:42.542Z,18.30
2017-09-15T08:27:09.785Z,13.77
2017-09-15T08:29:37.524Z,15.60
2017-09-15T08:32:05.254Z,16.90
2017-09-15T08:34:32.967Z,15.90
2017-09-15T08:48:31.956Z,14.90
2017-09-15T08:51:00.385Z,15.10
2017-09-15T08:53:28.124Z,13.30
2017-09-15T08:55:55.835Z,13.47
2017-09-15T08:58:24.258Z,13.17
2017-09-15T09:03:57.728Z,12.10
2017-09-15T09:06:25.670Z,13.33
2017-09-15T09:08:54.333Z,14.40
2017-09-15T09:11:22.022Z,17.10
2017-09-15T09:13:49.756Z,16.17
2017-09-15T09:16:32.231Z,16.10
2017-09-15T09:18:59.872Z,17.23
2017-09-15T09:21:27.557Z,16.03
2017-09-15T09:23:56.907Z,15.20
2017-09-15T09:26:34.145Z,14.67
2017-09-15T09:29:02.449Z,14.37
2017-09-15T09:31:30.905Z,15.27
2017-09-15T09:37:17.653Z,14.70
2017-09-15T09:39:58.322Z,14.50
2017-09-15T09:45:03.272Z,12.63
2017-09-15T09:47:30.951Z,12.33
2017-09-15T09:49:59.865Z,12.70
2017-09-15T09:52:28.787Z,12.53
2017-09-15T09:54:56.576Z,13.37
2017-09-15T09:57:24.268Z,12.77
2017-09-15T09:59:51.941Z,12.50
2017-09-15T10:02:26.544Z,13.63
2017-09-15T10:04:54.311Z,12.80
2017-09-15T10:07:22.908Z,13.23
2017-09-15T10:09:50.640Z,12.20
2017-09-15T10:12:18.486Z,13.50
2017-09-15T10:14:47.063Z,13.40
2017-09-15T10:28:48.120Z,10.33
2017-09-15T10:31:16.631Z,9.40
2017-09-15T10:33:53.902Z,8.10
2017-09-15T10:44:53.768Z,7.97
2017-09-15T10:47:21.529Z,7.30
2017-09-15T10:49:57.720Z,7.43
2017-09-15T10:52:27.492Z,8.30
2017-09-15T10:54:55.188Z,7.73
2017-09-15T10:57:23.204Z,8.37
2017-09-15T10:59:56.615Z,8.70
2017-09-15T11:02:24.364Z,8.10
2017-09-15T11:04:52.885Z,8.07
2017-09-15T11:07:20.665Z,8.30
2017-09-15T11:09:49.287Z,8.30
2017-09-15T11:12:17.752Z,9.87
2017-09-15T11:14:45.518Z,9.00
2017-09-15T11:45:55.442Z,7.13
2017-09-15T11:48:23.429Z,7.70
2017-09-15T11:50:57.488Z,7.10
2017-09-15T11:53:25.909Z,7.83
2017-09-15T11:55:54.319Z,8.50
2017-09-15T11:58:22.044Z,7.03
2017-09-15T12:00:49.696Z,8.80
2017-09-15T12:11:49.299Z,9.27
2017-09-15T12:14:16.999Z,10.27
2017-09-15T12:19:43.580Z,7.77
2017-09-15T12:22:12.168Z,7.60
2017-09-15T12:24:39.807Z,9.90
2017-09-15T12:27:07.451Z,10.17
2017-09-15T12:29:35.899Z,8.20
2017-09-15T12:32:03.586Z,8.90
2017-09-15T12:34:31.264Z,8.63
2017-09-15T12:37:07.811Z,9.50
2017-09-15T12:39:35.589Z,8.50
2017-09-15T12:42:04.083Z,9.17
2017-09-15T12:44:31.754Z,9.53
2017-09-15T12:46:59.458Z,9.97
2017-09-15T12:49:27.148Z,7.80
2017-09-15T12:51:54.916Z,9.10
2017-09-15T12:54:22.648Z,8.07
2017-09-15T12:56:50.315Z,9.17
2017-09-15T12:59:18.085Z,7.93
2017-09-15T13:01:45.836Z,8.70
2017-09-15T13:38:32.681Z,5.10
2017-09-15T13:41:00.687Z,5.23
2017-09-15T13:43:28.351Z,5.47
2017-09-15T13:45:56.058Z,5.40
2017-09-15T13:48:32.497Z,5.13
2017-09-15T13:51:00.894Z,4.27
2017-09-15T13:53:28.551Z,3.60
2017-09-15T13:55:56.262Z,3.63
2017-09-15T13:58:23.963Z,3.60
2017-09-15T14:00:51.738Z,3.90
2017-09-15T14:03:19.433Z,3.17
2017-09-15T14:05:47.063Z,3.00
2017-09-15T14:08:14.746Z,2.80
2017-09-15T14:10:42.368Z,2.70
2017-09-15T14:13:10.743Z,3.10
2017-09-15T14:15:39.121Z,2.73
2017-09-15T14:18:06.785Z,3.30
2017-09-15T14:20:35.181Z,2.73
2017-09-15T14:23:02.825Z,2.83
2017-09-15T14:25:32.914Z,3.60
2017-09-15T14:28:00.608Z,3.23
2017-09-15T14:30:29.196Z,3.30
2017-09-15T14:32:57.032Z,3.20
2017-09-15T14:35:24.920Z,4.27
2017-09-15T14:37:53.628Z,3.90
2017-09-15T14:40:21.316Z,4.27
2017-09-15T14:42:49.022Z,4.20
2017-09-15T14:45:17.435Z,3.33
2017-09-15T14:47:45.111Z,3.20
2017-09-15T14:50:12.804Z,3.67
2017-09-15T14:52:40.544Z,3.10
2017-09-15T14:55:08.304Z,2.50
2017-09-15T14:57:35.959Z,2.83
2017-09-15T15:00:03.652Z,2.80
2017-09-15T15:02:33.012Z,2.63
2017-09-15T15:08:06.952Z,2.90
2017-09-15T15:10:35.505Z,3.90
2017-09-15T15:13:03.224Z,3.77
2017-09-15T15:15:31.829Z,4.43
2017-09-15T15:17:59.485Z,4.43
2017-09-15T15:20:28.029Z,5.47
2017-09-15T15:22:55.728Z,5.40
2017-09-15T15:25:23.412Z,5.53
2017-09-15T15:27:51.898Z,5.10
2017-09-15T15:30:19.685Z,5.33
2017-09-15T15:32:48.295Z,5.23
2017-09-15T15:35:17.754Z,5.90
2017-09-15T15:37:45.453Z,5.80
2017-09-15T15:40:13.194Z,6.13
2017-09-15T15:42:40.897Z,5.73
2017-09-15T15:45:08.540Z,6.90
2017-09-15T15:47:36.206Z,5.87
2017-09-15T15:50:03.866Z,6.13
2017-09-15T15:52:31.539Z,5.70
2017-09-15T15:55:00.084Z,6.13
2017-09-15T15:57:27.745Z,6.03
2017-09-15T15:59:55.586Z,5.90
2017-09-15T16:02:23.334Z,5.90
2017-09-15T16:04:57.835Z,6.33
2017-09-15T16:07:25.576Z,7.63
2017-09-15T16:09:53.279Z,7.40
2017-09-15T16:12:20.971Z,7.60
2017-09-15T16:14:49.716Z,6.77
2017-09-15T16:17:22.153Z,6.67
2017-09-15T16:19:49.936Z,6.50
2017-09-15T16:22:17.745Z,6.17
2017-09-15T16:24:45.449Z,5.20
2017-09-15T16:27:13.157Z,5.10
2017-09-15T16:29:42.032Z,4.47
2017-09-15T16:32:09.775Z,4.80
2017-09-15T16:34:40.841Z,4.80
2017-09-15T16:37:08.557Z,4.43
2017-09-15T16:39:41.801Z,5.17
2017-09-15T16:42:15.166Z,5.27
2017-09-15T16:44:48.446Z,4.87
2017-09-15T16:47:22.214Z,5.10
2017-09-15T16:49:49.416Z,4.57
2017-09-15T16:52:17.113Z,3.70
2017-09-15T16:54:44.802Z,4.20
2017-09-15T16:57:12.525Z,3.80
2017-09-15T16:59:40.246Z,3.33
2017-09-15T17:02:07.957Z,3.20
2017-09-15T17:04:35.644Z,2.70
2017-09-15T17:07:03.395Z,3.10
2017-09-15T17:09:31.118Z,3.50
2017-09-15T17:11:58.881Z,4.00
2017-09-15T17:14:26.630Z,4.50
2017-09-15T17:16:54.245Z,4.10
2017-09-15T17:19:21.968Z,4.60
2017-09-15T17:21:49.638Z,4.30
2017-09-15T17:24:17.392Z,4.53
2017-09-15T17:26:45.826Z,4.00
2017-09-15T17:29:13.573Z,4.50
2017-09-15T17:31:41.300Z,4.50
2017-09-15T17:34:09.807Z,4.57
2017-09-15T17:36:37.487Z,4.90
2017-09-15T17:39:05.246Z,4.90
2017-09-15T18:04:41.021Z,8.43
2017-09-15T18:07:08.723Z,9.37
2017-09-15T18:09:36.441Z,10.00
2017-09-15T18:12:04.915Z,10.13
2017-09-15T18:14:32.603Z,10.33
2017-09-15T18:17:00.358Z,10.23
2017-09-15T18:19:28.080Z,9.13
2017-09-15T18:21:55.806Z,9.40
2017-09-15T18:24:23.525Z,9.40
2017-09-15T18:35:26.004Z,8.70
2017-09-15T18:37:56.389Z,8.97
2017-09-15T18:40:25.286Z,9.43
2017-09-15T18:42:53.677Z,8.70
2017-09-15T18:45:21.339Z,9.70
2017-09-15T18:47:49.732Z,9.70
2017-09-15T18:50:17.477Z,9.33
2017-09-15T18:52:45.917Z,9.13
2017-09-15T18:55:15.315Z,10.03
2017-09-15T18:57:46.683Z,9.23
2017-09-15T19:00:14.284Z,10.07
2017-09-15T19:02:41.955Z,10.90
2017-09-15T19:05:12.197Z,9.97
2017-09-15T19:07:39.906Z,10.40
2017-09-15T19:10:07.576Z,11.00
2017-09-15T19:12:36.036Z,12.00
2017-09-15T19:15:03.673Z,12.10
2017-09-15T19:17:31.331Z,12.43
2017-09-15T19:19:59.078Z,13.63
2017-09-15T19:22:27.475Z,12.93
2017-09-15T19:24:55.152Z,12.53
2017-09-15T19:27:22.838Z,12.90
2017-09-15T19:29:52.200Z,12.33
2017-09-15T19:32:19.929Z,12.80
2017-09-15T19:34:47.583Z,13.47
2017-09-15T19:37:15.217Z,13.63
2017-09-15T19:39:42.896Z,11.90
2017-09-15T19:42:11.676Z,12.50
2017-09-15T19:44:40.088Z,12.57
2017-09-15T19:47:07.718Z,14.50
2017-09-15T19:49:36.140Z,11.77
2017-09-15T19:52:03.755Z,12.00
2017-09-15T19:54:31.423Z,11.30
2017-09-15T20:02:44.436Z,11.80
2017-09-15T20:05:12.274Z,11.50
2017-09-15T20:07:39.914Z,11.40
2017-09-15T20:10:10.526Z,12.63
2017-09-15T20:12:43.839Z,11.47
2017-09-15T20:15:11.498Z,12.20
2017-09-15T20:17:39.931Z,12.57
2017-09-15T20:20:07.605Z,13.50
2017-09-15T20:22:35.259Z,11.33
2017-09-15T20:25:02.924Z,11.43
2017-09-15T20:27:30.580Z,12.20
2017-09-15T20:30:02.195Z,10.70
2017-09-15T20:32:31.203Z,10.60
2017-09-15T20:34:58.873Z,10.73
2017-09-15T20:37:26.495Z,11.27
2017-09-15T20:39:54.870Z,10.63
2017-09-15T20:42:23.258Z,10.87
2017-09-15T20:44:50.968Z,10.97
2017-09-15T20:47:18.573Z,10.47
2017-09-15T20:49:46.991Z,9.83
2017-09-15T20:52:14.618Z,10.20
2017-09-15T20:54:43.806Z,10.90
2017-09-15T20:57:13.447Z,10.77
2017-09-15T20:59:41.093Z,10.17
2017-09-15T21:02:09.519Z,10.93
2017-09-15T21:04:37.155Z,10.07
2017-09-15T21:07:04.784Z,10.30
2017-09-15T21:09:33.237Z,9.53
2017-09-15T21:12:00.859Z,8.83
2017-09-15T21:14:28.824Z,9.40
2017-09-15T21:17:04.701Z,9.83
2017-09-15T21:19:32.376Z,9.50
2017-09-15T21:22:00.015Z,10.07
2017-09-15T21:24:27.652Z,10.87
2017-09-15T21:26:56.053Z,9.80
2017-09-15T21:29:23.689Z,10.43
2017-09-15T21:31:54.773Z,10.87
2017-09-15T21:34:22.399Z,10.73
2017-09-15T21:36:50.803Z,11.37
2017-09-15T21:39:18.493Z,10.53
2017-09-15T21:41:46.148Z,11.00
2017-09-15T21:44:13.815Z,10.83
2017-09-15T21:46:41.783Z,10.77
2017-09-15T21:49:26.979Z,11.90
2017-09-15T21:51:55.421Z,12.73
2017-09-15T21:54:23.069Z,11.37
2017-09-15T21:56:50.737Z,11.77
2017-09-15T22:01:51.435Z,11.50
2017-09-15T22:04:24.625Z,12.33
2017-09-15T22:06:52.270Z,12.80
2017-09-15T22:09:19.894Z,12.47
2017-09-15T22:11:47.536Z,13.73
2017-09-15T22:14:15.190Z,12.90
2017-09-15T22:16:43.596Z,13.80
2017-09-15T22:19:11.260Z,14.20
2017-09-15T22:21:38.929Z,14.13
2017-09-15T22:24:06.585Z,13.00
2017-09-15T22:26:34.221Z,13.40
2017-09-15T22:29:02.666Z,14.40
2017-09-15T22:31:30.318Z,13.07
2017-09-15T22:33:57.945Z,12.50
2017-09-15T22:36:25.572Z,12.87
2017-09-15T22:38:53.974Z,12.93
2017-09-15T22:41:21.617Z,13.03
2017-09-15T22:43:50.029Z,11.20
2017-09-15T22:46:17.676Z,12.83
2017-09-15T22:48:45.309Z,12.00
2017-09-15T22:51:12.972Z,12.43
2017-09-15T22:53:40.601Z,13.70
2017-09-15T22:56:08.249Z,13.30
2017-09-15T22:58:35.880Z,12.00
2017-09-15T23:01:03.669Z,12.37
2017-09-15T23:03:31.309Z,12.40
2017-09-15T23:05:58.940Z,11.77
2017-09-15T23:08:26.619Z,12.30
2017-09-15T23:10:55.068Z,12.33
2017-09-15T23:13:22.721Z,11.60
2017-09-15T23:15:50.342Z,11.37
2017-09-15T23:18:18.016Z,12.30
2017-09-15T23:20:45.672Z,11.10
2017-09-15T23:23:13.321Z,10.97
2017-09-15T23:25:40.976Z,11.67
2017-09-15T23:28:09.380Z,11.50
2017-09-15T23:30:37.040Z,11.07
2017-09-15T23:33:04.715Z,10.90
2017-09-15T23:35:32.328Z,11.53
2017-09-15T23:37:59.960Z,11.20
2017-09-15T23:40:27.596Z,12.90
2017-09-15T23:42:55.270Z,11.10
2017-09-15T23:45:22.926Z,12.60
2017-09-15T23:47:50.624Z,11.73
2017-09-15T23:50:18.304Z,12.10
2017-09-15T23:52:46.721Z,11.77
2017-09-15T23:55:14.362Z,11.57
2017-09-15T23:57:42.769Z,12.90
